createdAt,value
2023-03-26T00:01:39.662Z,9.25
2023-03-26T00:04:08.327Z,9.28
2023-03-26T00:06:39.940Z,9.33
2023-03-26T00:09:13.500Z,9.38
2023-03-26T00:11:42.067Z,9.46
2023-03-26T00:14:14.112Z,9.39
2023-03-26T00:16:42.743Z,9.39
2023-03-26T00:19:12.840Z,9.43
2023-03-26T00:21:41.460Z,9.39
2023-03-26T00:24:16.342Z,9.41
2023-03-26T00:26:45.045Z,9.45
2023-03-26T00:29:15.558Z,9.42
2023-03-26T00:31:46.696Z,9.43
2023-03-26T00:34:18.645Z,9.45
2023-03-26T00:36:46.981Z,9.47
2023-03-26T00:39:17.782Z,9.46
2023-03-26T00:41:45.057Z,9.44
2023-03-26T00:44:12.645Z,9.43
2023-03-26T00:46:40.113Z,9.37
2023-03-26T00:49:11.080Z,9.36
2023-03-26T00:51:39.342Z,9.37
2023-03-26T00:54:08.672Z,9.32
2023-03-26T00:56:36.115Z,9.20
2023-03-26T00:59:04.524Z,9.16
2023-03-26T01:01:32.543Z,9.13
2023-03-26T01:04:31.604Z,9.12
2023-03-26T01:07:16.943Z,9.10
2023-03-26T01:09:50.386Z,9.11
2023-03-26T01:12:25.637Z,9.04
2023-03-26T01:15:01.134Z,9.02
2023-03-26T01:17:34.213Z,9.05
2023-03-26T01:20:26.962Z,9.02
2023-03-26T01:23:05.503Z,9.05
2023-03-26T01:25:44.565Z,9.03
2023-03-26T01:28:12.754Z,8.96
2023-03-26T01:30:58.721Z,8.81
2023-03-26T01:33:46.587Z,8.77
2023-03-26T01:36:36.794Z,8.64
2023-03-26T01:40:07.465Z,8.61
2023-03-26T01:42:51.459Z,8.71
2023-03-26T01:45:26.438Z,8.80
2023-03-26T01:47:55.520Z,8.83
2023-03-26T01:50:22.781Z,8.86
2023-03-26T01:52:50.570Z,8.90
2023-03-26T01:55:19.052Z,8.95
2023-03-26T01:58:03.892Z,8.98
2023-03-26T02:00:44.216Z,8.99
2023-03-26T02:03:31.611Z,9.01
2023-03-26T02:06:37.587Z,9.00
2023-03-26T02:09:11.716Z,9.01
2023-03-26T02:11:41.166Z,9.00
2023-03-26T02:14:10.119Z,8.98
2023-03-26T02:16:37.347Z,8.98
2023-03-26T02:19:05.498Z,8.99
2023-03-26T02:21:34.309Z,8.99
2023-03-26T02:24:04.949Z,8.96
2023-03-26T02:26:37.885Z,8.96
2023-03-26T02:29:14.241Z,8.95
2023-03-26T02:31:44.417Z,8.95
2023-03-26T02:34:12.168Z,8.94
2023-03-26T02:36:43.340Z,8.95
2023-03-26T02:39:14.313Z,8.94
2023-03-26T02:41:44.917Z,8.93
2023-03-26T02:44:13.353Z,8.90
2023-03-26T02:47:12.556Z,8.90
2023-03-26T02:49:58.488Z,8.91
2023-03-26T02:52:37.075Z,8.92
2023-03-26T02:55:05.019Z,8.90
2023-03-26T02:57:33.200Z,8.89
2023-03-26T03:00:17.450Z,8.89
2023-03-26T03:02:48.680Z,8.88
2023-03-26T03:05:34.073Z,8.88
2023-03-26T03:08:39.998Z,8.85
2023-03-26T03:11:31.357Z,8.83
2023-03-26T03:13:58.813Z,8.83
2023-03-26T03:16:28.768Z,8.82
2023-03-26T03:18:58.583Z,8.83
2023-03-26T03:21:35.806Z,8.82
2023-03-26T03:24:03.344Z,8.80
2023-03-26T03:26:36.626Z,8.81
2023-03-26T03:29:32.964Z,8.81
2023-03-26T03:32:22.576Z,8.81
2023-03-26T03:34:52.192Z,8.82
2023-03-26T03:37:20.640Z,8.79
2023-03-26T03:39:52.452Z,8.80
2023-03-26T03:42:22.755Z,8.79
2023-03-26T03:44:53.020Z,8.80
2023-03-26T03:47:53.427Z,8.79
2023-03-26T03:50:33.715Z,8.78
2023-03-26T03:53:29.436Z,8.79
2023-03-26T03:56:02.746Z,8.78
2023-03-26T03:58:51.598Z,8.80
2023-03-26T04:01:30.794Z,8.79
2023-03-26T04:04:07.985Z,8.80
2023-03-26T04:06:58.264Z,8.79
2023-03-26T04:09:30.975Z,8.80
2023-03-26T04:12:03.194Z,8.81
2023-03-26T04:14:39.129Z,8.80
2023-03-26T04:17:15.772Z,8.80
2023-03-26T04:19:45.638Z,8.80
2023-03-26T04:22:14.613Z,8.80
2023-03-26T04:24:54.430Z,8.78
2023-03-26T04:27:35.468Z,8.78
2023-03-26T04:30:20.861Z,8.78
2023-03-26T04:33:06.952Z,8.77
2023-03-26T04:35:41.870Z,8.75
2023-03-26T04:38:13.087Z,8.76
2023-03-26T04:40:50.552Z,8.76
2023-03-26T04:43:35.588Z,8.76
2023-03-26T04:46:06.053Z,8.75
2023-03-26T04:48:39.821Z,8.73
2023-03-26T04:51:18.510Z,8.72
2023-03-26T04:53:59.688Z,8.72
2023-03-26T04:57:01.169Z,8.72
2023-03-26T04:59:35.354Z,8.71
2023-03-26T05:02:08.211Z,8.71
2023-03-26T05:04:46.509Z,8.70
2023-03-26T05:07:21.437Z,8.69
2023-03-26T05:09:52.084Z,8.68
2023-03-26T05:12:24.229Z,8.69
2023-03-26T05:15:05.921Z,8.70
2023-03-26T05:17:46.469Z,8.71
2023-03-26T05:20:27.318Z,8.71
2023-03-26T05:22:55.267Z,8.73
2023-03-26T05:25:26.997Z,8.73
2023-03-26T05:27:55.473Z,8.73
2023-03-26T05:30:27.096Z,8.74
2023-03-26T05:32:59.904Z,8.76
2023-03-26T05:35:32.030Z,8.77
2023-03-26T05:37:59.605Z,8.78
2023-03-26T05:40:27.058Z,8.81
2023-03-26T05:42:57.939Z,8.83
2023-03-26T05:45:48.358Z,8.84
2023-03-26T05:48:24.906Z,8.88
2023-03-26T05:50:56.186Z,8.93
2023-03-26T05:53:27.525Z,8.95
2023-03-26T05:56:29.772Z,8.95
2023-03-26T05:59:16.128Z,9.00
2023-03-26T06:02:03.647Z,8.99
2023-03-26T06:04:51.712Z,9.02
2023-03-26T06:07:50.279Z,9.02
2023-03-26T06:10:20.311Z,9.06
2023-03-26T06:12:47.315Z,9.12
2023-03-26T06:15:15.785Z,9.15
2023-03-26T06:18:05.985Z,9.14
2023-03-26T06:20:48.931Z,9.15
2023-03-26T06:23:25.367Z,9.16
2023-03-26T06:26:06.538Z,9.17
2023-03-26T06:28:52.695Z,9.18
2023-03-26T06:31:34.775Z,9.23
2023-03-26T06:34:18.236Z,9.38
2023-03-26T06:36:46.140Z,9.44
2023-03-26T06:39:13.140Z,9.49
2023-03-26T06:41:49.514Z,9.51
2023-03-26T06:44:46.177Z,9.55
2023-03-26T06:47:34.064Z,9.61
2023-03-26T06:50:33.453Z,9.65
2023-03-26T06:53:13.499Z,9.66
2023-03-26T06:55:58.238Z,9.64
2023-03-26T06:58:44.322Z,9.68
2023-03-26T07:01:29.888Z,9.74
2023-03-26T07:04:16.277Z,9.81
2023-03-26T07:07:02.390Z,9.84
2023-03-26T07:09:49.120Z,9.88
2023-03-26T07:12:34.839Z,9.96
2023-03-26T07:15:21.322Z,10.02
2023-03-26T07:17:48.534Z,10.06
2023-03-26T07:20:22.729Z,10.05
2023-03-26T07:22:51.045Z,10.08
2023-03-26T07:25:44.800Z,10.11
2023-03-26T07:29:03.968Z,10.17
2023-03-26T07:32:27.163Z,10.49
2023-03-26T07:35:45.161Z,10.73
2023-03-26T07:39:42.630Z,10.88
2023-03-26T07:43:21.456Z,11.14
2023-03-26T07:46:14.329Z,11.27
2023-03-26T07:49:02.127Z,11.27
2023-03-26T07:51:39.518Z,11.43
2023-03-26T07:54:23.901Z,11.53
2023-03-26T07:57:46.778Z,11.50
2023-03-26T08:00:57.372Z,11.44
2023-03-26T08:03:38.490Z,11.39
2023-03-26T08:06:37.680Z,11.67
2023-03-26T08:09:49.057Z,12.00
2023-03-26T08:12:48.397Z,12.26
2023-03-26T08:15:45.229Z,12.39
2023-03-26T08:18:44.715Z,12.61
2023-03-26T08:21:20.808Z,12.63
2023-03-26T08:24:18.036Z,12.58
2023-03-26T08:27:04.447Z,12.65
2023-03-26T08:30:01.830Z,12.66
2023-03-26T08:32:30.632Z,12.61
2023-03-26T08:35:00.301Z,12.59
2023-03-26T08:37:29.202Z,12.46
2023-03-26T08:39:56.640Z,12.37
2023-03-26T08:43:04.337Z,12.21
2023-03-26T08:46:12.684Z,12.26
2023-03-26T08:49:21.267Z,12.20
2023-03-26T08:52:28.438Z,12.26
2023-03-26T08:55:27.751Z,12.32
2023-03-26T08:58:38.367Z,12.34
2023-03-26T09:01:46.631Z,12.43
2023-03-26T09:05:07.200Z,12.41
2023-03-26T09:08:00.873Z,12.42
2023-03-26T09:11:15.884Z,12.37
2023-03-26T09:14:25.512Z,12.62
2023-03-26T09:17:17.819Z,12.72
2023-03-26T09:20:35.830Z,13.10
2023-03-26T09:23:39.114Z,13.28
2023-03-26T09:26:25.363Z,13.55
2023-03-26T09:29:42.403Z,13.83
2023-03-26T09:33:02.004Z,13.84
2023-03-26T09:35:52.104Z,13.86
2023-03-26T09:39:08.852Z,13.55
2023-03-26T09:42:04.925Z,13.52
2023-03-26T09:45:39.537Z,13.34
2023-03-26T09:48:25.519Z,13.31
2023-03-26T09:51:13.491Z,13.32
2023-03-26T09:54:46.510Z,13.40
2023-03-26T09:57:43.458Z,13.48
2023-03-26T10:00:35.250Z,13.48
2023-03-26T10:03:41.282Z,13.75
2023-03-26T10:06:28.306Z,13.84
2023-03-26T10:09:17.670Z,13.89
2023-03-26T10:12:25.107Z,13.88
2023-03-26T10:15:31.428Z,13.88
2023-03-26T10:18:27.444Z,13.92
2023-03-26T10:21:45.922Z,13.98
2023-03-26T10:24:38.944Z,13.82
2023-03-26T10:27:42.464Z,13.76
2023-03-26T10:30:37.521Z,13.74
2023-03-26T10:33:30.974Z,13.79
2023-03-26T10:36:15.813Z,13.78
2023-03-26T10:39:36.360Z,13.93
2023-03-26T10:42:38.539Z,14.28
2023-03-26T10:45:26.005Z,14.51
2023-03-26T10:48:08.250Z,14.62
2023-03-26T10:51:00.374Z,14.73
2023-03-26T10:54:02.542Z,14.65
2023-03-26T10:56:41.387Z,14.64
2023-03-26T10:59:16.571Z,14.54
2023-03-26T11:02:03.380Z,14.51
2023-03-26T11:05:00.875Z,14.51
2023-03-26T11:07:43.465Z,14.58
2023-03-26T11:10:42.347Z,14.57
2023-03-26T11:13:50.940Z,14.54
2023-03-26T11:16:36.625Z,14.61
2023-03-26T11:19:33.693Z,14.66
2023-03-26T11:22:42.209Z,14.68
2023-03-26T11:25:40.721Z,14.68
2023-03-26T11:28:32.854Z,14.79
2023-03-26T11:31:11.817Z,14.95
2023-03-26T11:33:48.466Z,14.98
2023-03-26T11:36:23.820Z,14.96
2023-03-26T11:38:55.748Z,14.81
2023-03-26T11:41:33.410Z,14.82
2023-03-26T11:44:27.746Z,14.78
2023-03-26T11:47:10.382Z,14.85
2023-03-26T11:49:40.800Z,15.00
2023-03-26T11:52:12.226Z,15.23
2023-03-26T11:54:39.407Z,15.29
2023-03-26T11:57:16.050Z,15.30
2023-03-26T11:59:57.187Z,15.52
2023-03-26T12:02:38.341Z,15.68
2023-03-26T12:05:15.756Z,15.75
2023-03-26T12:08:02.410Z,15.70
2023-03-26T12:10:39.143Z,15.81
2023-03-26T12:13:36.536Z,15.66
2023-03-26T12:16:17.511Z,15.56
2023-03-26T12:18:57.928Z,15.43
2023-03-26T12:21:25.177Z,15.37
2023-03-26T12:24:04.834Z,15.32
2023-03-26T12:26:43.196Z,15.16
2023-03-26T12:29:14.895Z,14.98
2023-03-26T12:31:49.291Z,14.81
2023-03-26T12:34:22.945Z,14.81
2023-03-26T12:36:55.414Z,14.92
2023-03-26T12:40:08.610Z,14.97
2023-03-26T12:44:48.305Z,15.07
2023-03-26T12:47:55.499Z,15.13
2023-03-26T12:48:46.247Z,15.07
2023-03-26T12:51:47.556Z,15.00
2023-03-26T12:54:59.214Z,15.03
2023-03-26T12:58:13.890Z,15.25
2023-03-26T13:01:22.603Z,15.43
2023-03-26T13:04:21.852Z,15.50
2023-03-26T13:07:09.847Z,15.63
2023-03-26T13:10:32.902Z,15.74
2023-03-26T13:13:53.382Z,15.77
2023-03-26T13:16:56.915Z,15.74
2023-03-26T13:19:48.366Z,15.72
2023-03-26T13:23:17.524Z,15.60
2023-03-26T13:26:26.685Z,15.53
2023-03-26T13:29:38.108Z,15.51
2023-03-26T13:32:52.216Z,15.46
2023-03-26T13:35:34.552Z,15.46
2023-03-26T13:38:18.317Z,15.52
2023-03-26T13:41:07.073Z,15.61
2023-03-26T13:44:18.281Z,15.67
2023-03-26T13:47:04.618Z,15.68
2023-03-26T13:49:46.748Z,15.72
2023-03-26T13:52:48.510Z,15.71
2023-03-26T13:55:43.995Z,15.69
2023-03-26T13:58:22.126Z,15.69
2023-03-26T14:01:19.415Z,15.66
2023-03-26T14:04:23.419Z,15.64
2023-03-26T14:07:10.460Z,15.58
2023-03-26T14:10:08.725Z,15.56
2023-03-26T14:13:02.838Z,15.54
2023-03-26T14:15:51.853Z,15.48
2023-03-26T14:18:39.960Z,15.42
2023-03-26T14:21:45.574Z,15.30
2023-03-26T14:24:47.235Z,15.19
2023-03-26T14:27:48.986Z,15.13
2023-03-26T14:30:54.522Z,15.07
2023-03-26T14:34:04.880Z,15.04
2023-03-26T14:37:06.474Z,14.99
2023-03-26T14:39:58.670Z,14.94
2023-03-26T14:43:09.841Z,14.82
2023-03-26T14:46:02.494Z,14.74
2023-03-26T14:49:02.650Z,14.73
2023-03-26T14:52:13.642Z,14.67
2023-03-26T14:54:46.655Z,14.63
2023-03-26T14:58:02.102Z,14.61
2023-03-26T15:01:23.124Z,14.60
2023-03-26T15:04:39.853Z,14.54
2023-03-26T15:07:51.450Z,14.53
2023-03-26T15:10:55.535Z,14.54
2023-03-26T15:14:03.677Z,14.53
2023-03-26T15:17:18.686Z,14.52
2023-03-26T15:20:32.017Z,14.47
2023-03-26T15:23:40.745Z,14.44
2023-03-26T15:26:46.583Z,14.40
2023-03-26T15:29:52.394Z,14.38
2023-03-26T15:32:49.666Z,14.35
2023-03-26T15:35:51.754Z,14.30
2023-03-26T15:39:27.666Z,14.25
2023-03-26T15:42:11.674Z,14.21
2023-03-26T15:44:54.527Z,14.19
2023-03-26T15:48:15.115Z,14.19
2023-03-26T15:51:04.386Z,14.16
2023-03-26T15:53:49.382Z,14.16
2023-03-26T15:56:53.219Z,14.18
2023-03-26T15:59:52.716Z,14.18
2023-03-26T16:02:41.848Z,14.17
2023-03-26T16:05:44.780Z,14.16
2023-03-26T16:08:40.663Z,14.16
2023-03-26T16:11:13.196Z,14.16
2023-03-26T16:13:49.991Z,14.17
2023-03-26T16:16:45.224Z,14.15
2023-03-26T16:19:22.648Z,14.12
2023-03-26T16:22:01.010Z,14.11
2023-03-26T16:24:36.306Z,14.12
2023-03-26T16:27:13.114Z,14.12
2023-03-26T16:30:09.567Z,14.09
2023-03-26T16:32:46.997Z,14.06
2023-03-26T16:35:14.138Z,14.03
2023-03-26T16:37:50.709Z,14.01
2023-03-26T16:40:17.879Z,13.98
2023-03-26T16:43:24.571Z,13.95
2023-03-26T16:46:36.661Z,13.91
2023-03-26T16:49:27.625Z,13.88
2023-03-26T16:52:23.513Z,13.82
2023-03-26T16:55:06.900Z,13.77
2023-03-26T16:58:11.923Z,13.74
2023-03-26T17:01:06.259Z,13.69
2023-03-26T17:03:52.214Z,13.64
2023-03-26T17:06:47.842Z,13.56
2023-03-26T17:09:29.048Z,13.52
2023-03-26T17:12:23.897Z,13.47
2023-03-26T17:15:26.385Z,13.39
2023-03-26T17:18:36.380Z,13.33
2023-03-26T17:21:46.007Z,13.26
2023-03-26T17:24:58.053Z,13.19
2023-03-26T17:27:51.570Z,13.13
2023-03-26T17:31:04.827Z,13.06
2023-03-26T17:33:38.703Z,13.02
2023-03-26T17:36:12.906Z,12.97
2023-03-26T17:38:40.198Z,12.93
2023-03-26T17:41:35.803Z,12.88
2023-03-26T17:45:09.597Z,12.82
2023-03-26T17:48:07.179Z,12.77
2023-03-26T17:51:00.282Z,12.72
2023-03-26T17:53:32.221Z,12.68
2023-03-26T17:56:12.457Z,12.64
2023-03-26T17:58:47.924Z,12.59
2023-03-26T18:01:37.267Z,12.54
2023-03-26T18:04:24.734Z,12.49
2023-03-26T18:07:29.593Z,12.46
2023-03-26T18:10:47.793Z,12.40
2023-03-26T18:14:19.645Z,12.35
2023-03-26T18:16:54.055Z,12.29
2023-03-26T18:19:23.580Z,12.26
2023-03-26T18:22:04.635Z,12.21
2023-03-26T18:24:38.807Z,12.17
2023-03-26T18:27:19.237Z,12.13
2023-03-26T18:30:02.689Z,12.08
2023-03-26T18:32:34.057Z,12.03
2023-03-26T18:35:23.207Z,12.03
2023-03-26T18:37:59.368Z,11.98
2023-03-26T18:40:41.032Z,11.95
2023-03-26T18:43:28.799Z,11.92
2023-03-26T18:46:00.921Z,11.89
2023-03-26T18:48:29.380Z,11.84
2023-03-26T18:51:08.176Z,11.80
2023-03-26T18:53:49.441Z,11.78
2023-03-26T18:56:43.396Z,11.74
2023-03-26T18:59:35.338Z,11.72
2023-03-26T19:02:13.314Z,11.70
2023-03-26T19:04:46.273Z,11.66
2023-03-26T19:07:26.569Z,11.63
2023-03-26T19:09:56.625Z,11.62
2023-03-26T19:12:32.693Z,11.62
2023-03-26T19:15:13.396Z,11.59
2023-03-26T19:17:47.289Z,11.60
2023-03-26T19:20:44.180Z,11.58
2023-03-26T19:23:19.697Z,11.56
2023-03-26T19:25:55.001Z,11.54
2023-03-26T19:28:27.986Z,11.50
2023-03-26T19:31:06.614Z,11.49
2023-03-26T19:33:41.539Z,11.47
2023-03-26T19:36:21.441Z,11.40
2023-03-26T19:38:48.506Z,11.39
2023-03-26T19:41:25.155Z,11.38
2023-03-26T19:44:00.605Z,11.38
2023-03-26T19:46:33.919Z,11.35
2023-03-26T19:49:42.027Z,11.26
2023-03-26T19:52:15.975Z,11.12
2023-03-26T19:55:00.089Z,11.09
2023-03-26T19:57:32.727Z,11.02
2023-03-26T20:00:00.303Z,10.97
2023-03-26T20:02:32.367Z,10.92
2023-03-26T20:04:59.664Z,10.91
2023-03-26T20:07:35.756Z,10.83
2023-03-26T20:10:08.076Z,10.73
2023-03-26T20:12:35.829Z,10.67
2023-03-26T20:15:30.476Z,10.65
2023-03-26T20:17:57.936Z,10.63
2023-03-26T20:20:27.261Z,10.62
2023-03-26T20:22:55.555Z,10.65
2023-03-26T20:25:34.075Z,10.57
2023-03-26T20:28:01.845Z,10.52
2023-03-26T20:30:37.550Z,10.48
2023-03-26T20:33:12.588Z,10.49
2023-03-26T20:35:41.719Z,10.49
2023-03-26T20:38:10.576Z,10.49
2023-03-26T20:40:39.125Z,10.44
2023-03-26T20:43:22.011Z,10.41
2023-03-26T20:45:49.785Z,10.44
2023-03-26T20:48:17.319Z,10.48
2023-03-26T20:50:50.792Z,10.49
2023-03-26T20:53:20.496Z,10.48
2023-03-26T20:55:49.718Z,10.47
2023-03-26T20:58:31.848Z,10.48
2023-03-26T21:01:03.485Z,10.49
2023-03-26T21:03:31.333Z,10.49
2023-03-26T21:06:04.596Z,10.52
2023-03-26T21:08:35.785Z,10.52
2023-03-26T21:11:11.865Z,10.50
2023-03-26T21:14:27.515Z,10.47
2023-03-26T21:16:55.228Z,10.46
2023-03-26T21:19:23.371Z,10.44
2023-03-26T21:22:09.367Z,10.43
2023-03-26T21:24:44.191Z,10.43
2023-03-26T21:27:27.274Z,10.39
2023-03-26T21:29:56.224Z,10.39
2023-03-26T21:32:24.239Z,10.39
2023-03-26T21:37:24.087Z,10.37
2023-03-26T21:39:52.517Z,10.38
2023-03-26T21:42:20.195Z,10.38
2023-03-26T21:44:48.228Z,10.35
2023-03-26T21:47:16.021Z,10.35
2023-03-26T21:49:44.000Z,10.32
2023-03-26T21:52:15.394Z,10.31
2023-03-26T21:54:43.671Z,10.32
2023-03-26T21:57:37.824Z,10.31
2023-03-26T22:00:55.496Z,10.31
2023-03-26T22:03:56.055Z,10.28
2023-03-26T22:06:43.256Z,10.26
2023-03-26T22:09:15.024Z,10.25
2023-03-26T22:11:44.347Z,10.25
2023-03-26T22:14:13.308Z,10.24
2023-03-26T22:16:41.871Z,10.23
2023-03-26T22:19:09.498Z,10.20
2023-03-26T22:21:37.192Z,10.19
2023-03-26T22:24:04.879Z,10.20
2023-03-26T22:26:32.852Z,10.18
2023-03-26T22:29:00.148Z,10.17
2023-03-26T22:31:28.086Z,10.16
2023-03-26T22:33:56.264Z,10.16
2023-03-26T22:36:25.631Z,10.13
2023-03-26T22:38:54.325Z,10.13
2023-03-26T22:41:23.609Z,10.10
2023-03-26T22:43:54.601Z,10.09
2023-03-26T22:46:22.631Z,10.11
2023-03-26T22:48:51.088Z,10.08
2023-03-26T22:51:19.163Z,10.05
2023-03-26T22:53:46.523Z,10.04
2023-03-26T22:56:15.759Z,10.04
2023-03-26T22:58:43.125Z,9.97
2023-03-26T23:01:19.016Z,9.88
2023-03-26T23:03:46.726Z,9.82
2023-03-26T23:06:15.344Z,9.88
2023-03-26T23:08:43.082Z,9.82
2023-03-26T23:11:18.628Z,9.90
2023-03-26T23:13:47.917Z,9.90
2023-03-26T23:16:17.401Z,9.84
2023-03-26T23:18:45.337Z,9.81
2023-03-26T23:21:16.565Z,9.79
2023-03-26T23:23:44.323Z,9.83
2023-03-26T23:26:12.497Z,9.84
2023-03-26T23:28:41.192Z,9.84
2023-03-26T23:31:12.654Z,9.85
2023-03-26T23:33:47.572Z,9.88
2023-03-26T23:36:18.920Z,9.88
2023-03-26T23:38:48.452Z,9.87
2023-03-26T23:41:21.375Z,9.85
2023-03-26T23:43:54.763Z,9.83
2023-03-26T23:46:30.621Z,9.82
2023-03-26T23:49:05.271Z,9.82
2023-03-26T23:51:33.597Z,9.79
2023-03-26T23:54:02.587Z,9.75
2023-03-26T23:56:30.562Z,9.74
2023-03-26T23:58:59.300Z,9.74
